Hope, Michigan
Current Conditions -  °F | °C
As of 7:14 PM on Monday 22 Dec 2014 (Local Time) from KIKW Reporting Station
Overcast Overcast  
Wind Chill: -3°   Ceiling: 4300
Heat Index:   Visibility: 10mi
Dew Point: -1°   Wind: 9mph
Humidity: 85%   Direction: 70°ENE
Pressure: 29.93"   Gusts: NA
Location:  43.76°N, 84.34°W
Report Text: KIKW 230014Z AUTO 07008KT 10SM BKN043 OVC060 01/M01 A2993 RMK AO2 T00101012
Loading
Personal Weather Stations






























Interactive Weather Map New forecast layout! Learn more

10-Day Weather Forecast

Advertisements
Track Severe Weather on mobile